createdAt,value
2018-09-24T00:00:12.939Z,11.20
2018-09-24T00:02:41.927Z,11.20
2018-09-24T00:05:10.966Z,11.20
2018-09-24T00:07:39.954Z,11.20
2018-09-24T00:10:08.964Z,11.10
2018-09-24T00:12:37.998Z,11.10
2018-09-24T00:15:07.403Z,11.10
2018-09-24T00:17:36.451Z,11.10
2018-09-24T00:20:05.521Z,11.10
2018-09-24T00:22:34.618Z,11.10
2018-09-24T00:25:04.038Z,11.10
2018-09-24T00:27:33.090Z,11.10
2018-09-24T00:30:02.131Z,11.10
2018-09-24T00:32:31.156Z,11.10
2018-09-24T00:35:00.285Z,11.20
2018-09-24T00:37:29.356Z,11.20
2018-09-24T00:39:58.786Z,11.20
2018-09-24T00:42:27.894Z,11.10
2018-09-24T00:44:56.939Z,11.10
2018-09-24T00:47:26.020Z,11.00
2018-09-24T00:49:55.302Z,11.10
2018-09-24T00:52:24.564Z,11.00
2018-09-24T00:54:53.582Z,11.00
2018-09-24T00:57:22.752Z,11.00
2018-09-24T00:59:51.753Z,11.00
2018-09-24T01:02:20.770Z,11.00
2018-09-24T01:04:49.790Z,11.00
2018-09-24T01:07:18.829Z,11.10
2018-09-24T01:09:48.133Z,11.00
2018-09-24T01:12:17.139Z,10.90
2018-09-24T01:14:46.143Z,10.90
2018-09-24T01:17:21.691Z,10.90
2018-09-24T01:19:50.726Z,10.80
2018-09-24T01:22:19.807Z,10.70
2018-09-24T01:24:48.861Z,10.70
2018-09-24T01:27:17.865Z,10.60
2018-09-24T01:29:46.908Z,10.60
2018-09-24T01:32:16.464Z,10.60
2018-09-24T01:34:45.491Z,10.60
2018-09-24T01:37:14.542Z,10.50
2018-09-24T01:39:44.000Z,10.50
2018-09-24T01:42:13.051Z,10.50
2018-09-24T01:44:42.092Z,10.50
2018-09-24T01:47:11.109Z,10.50
2018-09-24T01:49:40.604Z,10.50
2018-09-24T01:52:09.699Z,10.50
2018-09-24T01:54:38.760Z,10.50
2018-09-24T01:57:13.975Z,10.50
2018-09-24T01:59:58.393Z,10.50
2018-09-24T02:02:27.432Z,10.60
2018-09-24T02:04:56.477Z,10.70
2018-09-24T02:07:25.471Z,10.70
2018-09-24T02:09:54.481Z,10.80
2018-09-24T02:12:23.532Z,10.90
2018-09-24T02:14:52.545Z,10.90
2018-09-24T02:17:23.475Z,11.00
2018-09-24T02:19:52.891Z,10.90
2018-09-24T02:22:27.799Z,10.90
2018-09-24T02:24:57.859Z,10.80
2018-09-24T02:27:27.256Z,10.80
2018-09-24T02:29:56.338Z,10.80
2018-09-24T02:32:25.341Z,10.80
2018-09-24T02:34:56.714Z,10.80
2018-09-24T02:37:25.744Z,10.80
2018-09-24T02:39:54.819Z,10.70
2018-09-24T02:42:23.909Z,10.70
2018-09-24T02:44:56.989Z,10.60
2018-09-24T02:47:30.942Z,10.60
2018-09-24T02:50:01.491Z,10.60
2018-09-24T02:52:30.569Z,10.60
2018-09-24T02:54:59.588Z,10.60
2018-09-24T02:57:28.675Z,10.70
2018-09-24T02:59:57.713Z,10.70
2018-09-24T03:02:26.826Z,10.60
2018-09-24T03:04:56.787Z,10.60
2018-09-24T03:07:25.869Z,10.70
2018-09-24T03:09:55.129Z,10.80
2018-09-24T03:12:24.270Z,10.80
2018-09-24T03:14:53.505Z,10.80
2018-09-24T03:17:22.704Z,10.70
2018-09-24T03:19:51.759Z,10.60
2018-09-24T03:22:23.558Z,10.60
2018-09-24T03:24:53.922Z,10.60
2018-09-24T03:27:23.689Z,10.60
2018-09-24T03:29:52.726Z,10.50
2018-09-24T03:32:21.775Z,10.40
2018-09-24T03:34:50.999Z,10.40
2018-09-24T03:37:20.051Z,10.30
2018-09-24T03:39:49.095Z,10.30
2018-09-24T03:42:18.103Z,10.30
2018-09-24T03:44:47.173Z,10.30
2018-09-24T03:47:16.237Z,10.20
2018-09-24T03:49:45.241Z,10.20
2018-09-24T03:52:14.295Z,10.30
2018-09-24T03:54:43.318Z,10.30
2018-09-24T03:57:12.337Z,10.30
2018-09-24T03:59:41.361Z,10.30
2018-09-24T04:02:10.434Z,10.30
2018-09-24T04:04:46.824Z,10.30
2018-09-24T04:07:21.219Z,10.20
2018-09-24T04:09:55.520Z,10.10
2018-09-24T04:12:29.930Z,10.00
2018-09-24T04:15:04.391Z,10.00
2018-09-24T04:17:38.899Z,10.00
2018-09-24T04:20:13.515Z,10.00
2018-09-24T04:22:47.817Z,9.90
2018-09-24T04:25:22.186Z,9.90
2018-09-24T04:27:56.532Z,9.80
2018-09-24T04:30:31.064Z,9.80
2018-09-24T04:33:05.668Z,9.70
2018-09-24T04:35:39.974Z,9.70
2018-09-24T04:38:14.323Z,9.50
2018-09-24T04:40:48.782Z,9.40
2018-09-24T04:43:23.216Z,9.40
2018-09-24T04:45:57.832Z,9.30
2018-09-24T04:48:32.221Z,9.20
2018-09-24T04:51:06.762Z,9.20
2018-09-24T04:53:41.236Z,9.10
2018-09-24T04:56:15.705Z,9.20
2018-09-24T04:58:50.025Z,9.20
2018-09-24T05:01:24.244Z,9.10
2018-09-24T05:03:58.611Z,9.10
2018-09-24T05:06:32.993Z,9.00
2018-09-24T05:09:07.405Z,9.00
2018-09-24T05:11:41.852Z,8.90
2018-09-24T05:14:16.326Z,8.90
2018-09-24T05:16:50.634Z,8.80
2018-09-24T05:19:25.044Z,8.80
2018-09-24T05:21:59.681Z,8.70
2018-09-24T05:24:34.137Z,8.60
2018-09-24T05:27:08.665Z,8.70
2018-09-24T05:29:43.149Z,8.80
2018-09-24T05:32:17.492Z,8.80
2018-09-24T05:34:51.985Z,8.80
2018-09-24T05:37:26.272Z,8.80
2018-09-24T05:40:00.802Z,8.80
2018-09-24T05:42:35.102Z,8.90
2018-09-24T05:45:09.955Z,9.00
2018-09-24T05:47:44.258Z,9.10
2018-09-24T05:50:19.245Z,9.10
2018-09-24T05:52:53.689Z,9.20
2018-09-24T05:55:28.040Z,9.30
2018-09-24T05:58:02.477Z,9.40
2018-09-24T06:00:36.786Z,9.50
2018-09-24T06:03:11.870Z,9.60
2018-09-24T06:05:46.403Z,9.70
2018-09-24T06:08:20.898Z,9.80
2018-09-24T06:10:55.228Z,9.90
2018-09-24T06:13:29.668Z,9.90
2018-09-24T06:16:04.267Z,10.00
2018-09-24T06:18:38.635Z,10.10
2018-09-24T06:21:12.919Z,10.20
2018-09-24T06:23:47.185Z,10.30
2018-09-24T06:26:21.700Z,10.40
2018-09-24T06:28:56.012Z,10.40
2018-09-24T06:31:30.539Z,10.50
2018-09-24T06:34:04.899Z,10.60
2018-09-24T06:36:39.291Z,10.70
2018-09-24T06:39:20.729Z,10.70
2018-09-24T06:41:55.225Z,10.80
2018-09-24T06:44:29.471Z,10.70
2018-09-24T06:47:03.789Z,10.70
2018-09-24T06:49:38.309Z,10.90
2018-09-24T06:52:19.397Z,10.80
2018-09-24T06:54:53.850Z,10.90
2018-09-24T06:57:28.348Z,10.80
2018-09-24T07:00:02.962Z,10.70
2018-09-24T07:02:37.732Z,10.80
2018-09-24T07:05:12.454Z,10.80
2018-09-24T07:07:46.921Z,11.00
2018-09-24T07:10:21.360Z,11.00
2018-09-24T07:12:56.118Z,11.10
2018-09-24T07:15:30.516Z,11.00
2018-09-24T07:18:05.005Z,11.10
2018-09-24T07:20:39.480Z,11.30
2018-09-24T07:23:13.987Z,11.40
2018-09-24T07:25:48.278Z,11.50
2018-09-24T07:28:23.024Z,11.60
2018-09-24T07:30:57.585Z,11.70
2018-09-24T07:33:32.102Z,11.80
2018-09-24T07:36:06.501Z,11.90
2018-09-24T07:38:41.143Z,12.10
2018-09-24T07:41:15.816Z,12.20
2018-09-24T07:43:50.209Z,12.50
2018-09-24T07:46:24.512Z,12.70
2018-09-24T07:48:59.240Z,12.80
2018-09-24T07:51:33.661Z,12.90
2018-09-24T07:54:08.089Z,13.00
2018-09-24T07:56:42.513Z,13.10
2018-09-24T07:59:17.472Z,13.20
2018-09-24T08:01:51.721Z,13.20
2018-09-24T08:04:26.209Z,13.20
2018-09-24T08:07:00.604Z,13.60
2018-09-24T08:09:34.916Z,13.40
2018-09-24T08:12:09.399Z,13.50
2018-09-24T08:14:43.801Z,13.80
2018-09-24T08:17:18.175Z,13.80
2018-09-24T08:19:52.723Z,14.00
2018-09-24T08:22:27.093Z,14.10
2018-09-24T08:25:01.639Z,14.10
2018-09-24T08:27:35.980Z,14.00
2018-09-24T08:30:10.507Z,13.60
2018-09-24T08:32:44.852Z,13.70
2018-09-24T08:35:19.446Z,14.00
2018-09-24T08:37:53.797Z,14.10
2018-09-24T08:40:28.272Z,14.20
2018-09-24T08:43:02.661Z,14.00
2018-09-24T08:45:37.111Z,13.90
2018-09-24T08:48:11.280Z,14.10
2018-09-24T08:50:45.691Z,14.10
2018-09-24T08:53:20.001Z,14.20
2018-09-24T08:55:54.703Z,14.10
2018-09-24T08:58:29.140Z,14.00
2018-09-24T09:01:03.674Z,14.10
2018-09-24T09:03:38.051Z,14.20
2018-09-24T09:06:12.571Z,14.30
2018-09-24T09:08:46.906Z,14.50
2018-09-24T09:11:21.291Z,14.60
2018-09-24T09:13:55.662Z,14.70
2018-09-24T09:16:30.191Z,14.80
2018-09-24T09:19:04.763Z,15.00
2018-09-24T09:21:45.712Z,15.10
2018-09-24T09:24:20.148Z,14.80
2018-09-24T09:26:54.574Z,14.70
2018-09-24T09:29:28.857Z,15.10
2018-09-24T09:32:03.276Z,15.20
2018-09-24T09:34:37.594Z,15.00
2018-09-24T09:37:12.052Z,15.10
2018-09-24T09:39:46.580Z,15.20
2018-09-24T09:42:21.066Z,15.00
2018-09-24T09:44:55.592Z,14.90
2018-09-24T09:47:30.123Z,14.80
2018-09-24T09:50:04.455Z,15.00
2018-09-24T09:52:38.924Z,15.40
2018-09-24T09:55:13.300Z,15.50
2018-09-24T09:57:47.680Z,15.40
2018-09-24T10:00:22.267Z,15.20
2018-09-24T10:02:56.781Z,15.30
2018-09-24T10:05:31.132Z,15.60
2018-09-24T10:08:05.921Z,15.30
2018-09-24T10:10:40.378Z,15.30
2018-09-24T10:13:14.831Z,15.40
2018-09-24T10:15:49.124Z,15.60
2018-09-24T10:18:23.503Z,16.00
2018-09-24T10:20:57.963Z,15.60
2018-09-24T10:23:32.397Z,15.40
2018-09-24T10:26:06.972Z,15.60
2018-09-24T10:28:41.457Z,15.90
2018-09-24T10:31:15.846Z,16.00
2018-09-24T10:33:50.396Z,16.10
2018-09-24T10:36:24.968Z,16.20
2018-09-24T10:38:59.581Z,16.60
2018-09-24T10:41:34.351Z,16.60
2018-09-24T10:44:08.628Z,16.90
2018-09-24T10:46:43.130Z,17.00
2018-09-24T10:49:17.608Z,16.90
2018-09-24T10:51:52.032Z,17.40
2018-09-24T10:54:26.418Z,17.80
2018-09-24T10:57:00.712Z,19.20
2018-09-24T10:59:35.544Z,21.70
2018-09-24T11:02:10.375Z,23.90
2018-09-24T11:04:44.753Z,24.40
2018-09-24T11:07:19.455Z,25.10
2018-09-24T11:09:53.896Z,23.00
2018-09-24T11:12:28.311Z,20.90
2018-09-24T11:15:02.655Z,19.90
2018-09-24T11:17:37.311Z,18.70
2018-09-24T11:20:11.783Z,18.60
2018-09-24T11:22:46.281Z,19.10
2018-09-24T11:25:20.606Z,21.20
2018-09-24T11:27:55.229Z,23.00
2018-09-24T11:30:29.674Z,22.40
2018-09-24T11:33:04.177Z,21.70
2018-09-24T11:35:38.927Z,21.10
2018-09-24T11:38:13.253Z,19.90
2018-09-24T11:40:47.523Z,19.00
2018-09-24T11:43:22.216Z,21.10
2018-09-24T11:45:56.570Z,22.50
2018-09-24T11:48:31.116Z,23.70
2018-09-24T11:51:05.316Z,24.70
2018-09-24T11:53:39.943Z,24.80
2018-09-24T11:56:14.843Z,24.10
2018-09-24T11:58:49.406Z,24.40
2018-09-24T12:01:23.651Z,25.70
2018-09-24T12:03:57.877Z,24.30
2018-09-24T12:06:32.176Z,24.10
2018-09-24T12:09:06.601Z,24.70
2018-09-24T12:11:41.073Z,24.90
2018-09-24T12:14:15.517Z,26.10
2018-09-24T12:16:49.974Z,24.70
2018-09-24T12:19:24.423Z,22.40
2018-09-24T12:21:58.819Z,21.10
2018-09-24T12:24:33.283Z,20.30
2018-09-24T12:27:07.649Z,19.20
2018-09-24T12:29:41.942Z,18.80
2018-09-24T12:32:16.405Z,18.80
2018-09-24T12:34:50.727Z,19.30
2018-09-24T12:37:25.251Z,19.80
2018-09-24T12:39:59.516Z,19.90
2018-09-24T12:42:33.908Z,19.40
2018-09-24T12:45:08.308Z,18.50
2018-09-24T12:47:42.791Z,18.00
2018-09-24T12:50:17.075Z,17.80
2018-09-24T12:52:51.411Z,17.10
2018-09-24T12:55:25.870Z,16.50
2018-09-24T12:58:00.265Z,16.00
2018-09-24T13:00:34.460Z,15.50
2018-09-24T13:03:08.900Z,15.60
2018-09-24T13:05:43.360Z,16.00
2018-09-24T13:08:17.696Z,16.60
2018-09-24T13:10:52.549Z,17.50
2018-09-24T13:13:26.885Z,18.10
2018-09-24T13:16:01.362Z,17.80
2018-09-24T13:18:35.632Z,18.10
2018-09-24T13:21:10.361Z,18.10
2018-09-24T13:23:45.019Z,17.90
2018-09-24T13:26:19.254Z,18.30
2018-09-24T13:28:53.931Z,18.90
2018-09-24T13:31:28.183Z,21.40
2018-09-24T13:34:02.649Z,24.10
2018-09-24T13:36:36.948Z,25.90
2018-09-24T13:39:13.667Z,27.30
2018-09-24T13:41:56.742Z,29.50
2018-09-24T13:44:31.784Z,30.20
2018-09-24T13:47:06.804Z,31.00
2018-09-24T13:49:42.434Z,31.80
2018-09-24T13:52:17.410Z,32.40
2018-09-24T13:54:52.432Z,31.90
2018-09-24T13:57:27.272Z,31.80
2018-09-24T14:00:02.375Z,32.20
2018-09-24T14:02:37.306Z,33.30
2018-09-24T14:05:12.379Z,33.60
2018-09-24T14:07:47.382Z,30.90
2018-09-24T14:10:22.418Z,30.80
2018-09-24T14:12:57.258Z,30.00
2018-09-24T14:15:32.205Z,29.60
2018-09-24T14:18:07.058Z,29.20
2018-09-24T14:20:42.134Z,28.60
2018-09-24T14:23:17.049Z,28.50
2018-09-24T14:25:52.018Z,29.60
2018-09-24T14:28:26.851Z,30.20
2018-09-24T14:31:01.724Z,30.10
2018-09-24T14:33:36.658Z,29.70
2018-09-24T14:36:12.624Z,29.50
2018-09-24T14:38:47.507Z,27.30
2018-09-24T14:41:23.032Z,25.20
2018-09-24T14:43:57.422Z,23.60
2018-09-24T14:46:31.877Z,22.00
2018-09-24T14:49:06.267Z,20.70
2018-09-24T14:51:40.892Z,19.90
2018-09-24T14:54:15.186Z,18.90
2018-09-24T14:56:49.738Z,18.60
2018-09-24T14:59:24.255Z,18.60
2018-09-24T15:01:58.581Z,18.60
2018-09-24T15:04:33.081Z,18.20
2018-09-24T15:07:07.634Z,18.10
2018-09-24T15:09:42.276Z,17.80
2018-09-24T15:12:16.671Z,17.50
2018-09-24T15:14:51.327Z,17.50
2018-09-24T15:17:25.854Z,17.60
2018-09-24T15:20:00.420Z,17.80
2018-09-24T15:22:34.735Z,17.40
2018-09-24T15:25:09.111Z,17.70
2018-09-24T15:27:43.986Z,18.60
2018-09-24T15:30:18.546Z,19.20
2018-09-24T15:32:52.862Z,19.70
2018-09-24T15:35:27.398Z,19.70
2018-09-24T15:38:01.931Z,18.50
2018-09-24T15:40:36.388Z,18.10
2018-09-24T15:43:11.551Z,19.60
2018-09-24T15:45:45.969Z,22.00
2018-09-24T15:48:20.351Z,24.30
2018-09-24T15:50:54.894Z,25.30
2018-09-24T15:53:29.274Z,24.40
2018-09-24T15:56:03.642Z,23.00
2018-09-24T15:58:38.084Z,22.40
2018-09-24T16:01:13.079Z,21.40
2018-09-24T16:03:47.532Z,20.40
2018-09-24T16:06:21.894Z,19.70
2018-09-24T16:08:56.382Z,18.90
2018-09-24T16:11:30.956Z,18.10
2018-09-24T16:14:05.540Z,17.20
2018-09-24T16:16:39.781Z,16.80
2018-09-24T16:19:14.094Z,16.40
2018-09-24T16:21:48.384Z,16.00
2018-09-24T16:24:22.675Z,15.60
2018-09-24T16:26:57.326Z,15.50
2018-09-24T16:29:31.849Z,15.60
2018-09-24T16:32:06.476Z,15.70
2018-09-24T16:34:40.740Z,15.60
2018-09-24T16:37:15.161Z,15.80
2018-09-24T16:39:49.646Z,15.90
2018-09-24T16:42:24.029Z,15.80
2018-09-24T16:44:58.454Z,15.60
2018-09-24T16:47:32.868Z,15.60
2018-09-24T16:50:07.665Z,15.60
2018-09-24T16:52:42.267Z,15.10
2018-09-24T16:55:16.727Z,14.90
2018-09-24T16:57:51.229Z,14.80
2018-09-24T17:00:26.129Z,14.70
2018-09-24T17:03:00.448Z,14.50
2018-09-24T17:05:34.741Z,14.30
2018-09-24T17:08:09.540Z,14.20
2018-09-24T17:10:43.869Z,14.10
2018-09-24T17:13:18.420Z,14.00
2018-09-24T17:15:52.662Z,13.90
2018-09-24T17:18:26.953Z,13.90
2018-09-24T17:21:01.398Z,13.90
2018-09-24T17:23:35.709Z,13.70
2018-09-24T17:26:10.325Z,13.60
2018-09-24T17:28:44.967Z,13.50
2018-09-24T17:31:19.392Z,13.50
2018-09-24T17:33:53.749Z,13.40
2018-09-24T17:36:28.160Z,13.30
2018-09-24T17:39:02.630Z,13.30
2018-09-24T17:41:36.956Z,13.20
2018-09-24T17:44:11.322Z,13.10
2018-09-24T17:46:45.756Z,12.90
2018-09-24T17:49:20.136Z,12.90
2018-09-24T17:51:54.449Z,12.80
2018-09-24T17:54:29.001Z,12.80
2018-09-24T17:57:03.466Z,12.70
2018-09-24T17:59:37.886Z,12.70
2018-09-24T18:02:12.408Z,12.70
2018-09-24T18:04:46.730Z,12.70
2018-09-24T18:07:21.107Z,12.70
2018-09-24T18:09:55.429Z,12.60
2018-09-24T18:12:29.932Z,12.50
2018-09-24T18:15:04.409Z,12.50
2018-09-24T18:17:38.962Z,12.40
2018-09-24T18:20:13.695Z,12.30
2018-09-24T18:22:48.114Z,12.30
2018-09-24T18:25:22.974Z,12.30
2018-09-24T18:27:57.241Z,12.30
2018-09-24T18:30:31.554Z,12.30
2018-09-24T18:33:06.006Z,12.20
2018-09-24T18:35:40.476Z,12.20
2018-09-24T18:38:15.066Z,12.30
2018-09-24T18:40:49.431Z,12.20
2018-09-24T18:43:23.861Z,12.20
2018-09-24T18:45:58.154Z,12.10
2018-09-24T18:48:32.492Z,12.00
2018-09-24T18:51:06.839Z,11.90
2018-09-24T18:53:41.194Z,11.90
2018-09-24T18:56:16.999Z,11.90
2018-09-24T18:58:51.368Z,11.90
2018-09-24T19:01:25.793Z,11.80
2018-09-24T19:04:00.153Z,11.90
2018-09-24T19:06:34.430Z,11.90
2018-09-24T19:09:09.157Z,11.90
2018-09-24T19:11:43.617Z,12.00
2018-09-24T19:14:17.924Z,12.00
2018-09-24T19:16:52.288Z,12.00
2018-09-24T19:19:26.731Z,12.10
2018-09-24T19:22:01.121Z,12.00
2018-09-24T19:24:35.589Z,11.90
2018-09-24T19:27:10.097Z,11.90
2018-09-24T19:29:44.723Z,12.00
2018-09-24T19:32:19.001Z,11.90
2018-09-24T19:34:53.540Z,11.90
2018-09-24T19:37:28.090Z,11.80
2018-09-24T19:40:02.525Z,11.70
2018-09-24T19:42:37.040Z,11.70
2018-09-24T19:45:11.695Z,11.70
2018-09-24T19:47:45.975Z,11.60
2018-09-24T19:50:20.400Z,11.50
2018-09-24T19:52:54.722Z,11.40
2018-09-24T19:55:29.191Z,11.40
2018-09-24T19:58:03.535Z,11.30
2018-09-24T20:00:37.845Z,11.30
2018-09-24T20:03:12.183Z,11.30
2018-09-24T20:05:46.825Z,11.20
2018-09-24T20:08:21.294Z,11.20
2018-09-24T20:10:55.641Z,11.10
2018-09-24T20:13:30.057Z,11.10
2018-09-24T20:16:04.477Z,11.10
2018-09-24T20:18:39.043Z,11.20
2018-09-24T20:21:13.416Z,11.10
2018-09-24T20:23:47.854Z,11.10
2018-09-24T20:26:22.173Z,11.10
2018-09-24T20:28:56.590Z,11.00
2018-09-24T20:31:31.089Z,11.00
2018-09-24T20:34:05.413Z,11.00
2018-09-24T20:36:39.873Z,10.90
2018-09-24T20:39:14.394Z,10.80
2018-09-24T20:41:48.921Z,10.80
2018-09-24T20:44:23.278Z,10.70
2018-09-24T20:46:57.516Z,10.60
2018-09-24T20:49:31.873Z,10.50
2018-09-24T20:52:06.193Z,10.50
2018-09-24T20:54:40.697Z,10.50
2018-09-24T20:57:15.173Z,10.50
2018-09-24T20:59:49.616Z,10.40
2018-09-24T21:02:23.855Z,10.40
2018-09-24T21:04:58.260Z,10.30
2018-09-24T21:07:32.717Z,10.30
2018-09-24T21:10:07.048Z,10.20
2018-09-24T21:12:41.365Z,10.20
2018-09-24T21:15:15.916Z,10.30
2018-09-24T21:17:50.401Z,10.30
2018-09-24T21:20:24.765Z,10.30
2018-09-24T21:22:59.209Z,10.20
2018-09-24T21:25:33.502Z,10.20
2018-09-24T21:28:07.950Z,10.20
2018-09-24T21:30:42.360Z,10.20
2018-09-24T21:33:16.813Z,10.20
2018-09-24T21:35:51.208Z,10.20
2018-09-24T21:38:25.470Z,10.20
2018-09-24T21:41:00.355Z,10.10
2018-09-24T21:43:34.744Z,10.00
2018-09-24T21:46:09.192Z,10.00
2018-09-24T21:48:43.900Z,9.90
2018-09-24T21:51:18.368Z,9.80
2018-09-24T21:53:52.933Z,9.80
2018-09-24T21:56:27.343Z,9.80
2018-09-24T21:59:02.136Z,9.80
2018-09-24T22:01:36.752Z,9.80
2018-09-24T22:04:11.264Z,9.90
2018-09-24T22:06:45.582Z,9.90
2018-09-24T22:09:19.808Z,9.90
2018-09-24T22:11:54.553Z,9.90
2018-09-24T22:14:29.540Z,9.80
2018-09-24T22:17:03.959Z,9.80
2018-09-24T22:19:38.373Z,9.80
2018-09-24T22:22:12.718Z,9.80
2018-09-24T22:24:46.998Z,9.80
2018-09-24T22:27:21.416Z,9.80
2018-09-24T22:29:55.796Z,9.80
2018-09-24T22:32:30.271Z,9.70
2018-09-24T22:35:04.498Z,9.70
2018-09-24T22:37:45.459Z,9.70
2018-09-24T22:40:19.874Z,9.70
2018-09-24T22:42:54.215Z,9.60
2018-09-24T22:45:28.541Z,9.60
2018-09-24T22:48:03.070Z,9.50
2018-09-24T22:50:37.411Z,9.50
2018-09-24T22:53:11.628Z,9.50
2018-09-24T22:55:45.979Z,9.50
2018-09-24T22:58:20.451Z,9.50
2018-09-24T23:00:54.960Z,9.50
2018-09-24T23:03:29.321Z,9.50
2018-09-24T23:06:10.302Z,9.40
2018-09-24T23:08:44.815Z,9.40
2018-09-24T23:11:19.220Z,9.30
2018-09-24T23:13:53.714Z,9.30
2018-09-24T23:16:28.062Z,9.30
2018-09-24T23:19:09.443Z,9.20
2018-09-24T23:21:43.910Z,9.20
2018-09-24T23:24:18.331Z,9.20
2018-09-24T23:26:52.624Z,9.10
2018-09-24T23:29:26.961Z,9.10
2018-09-24T23:32:01.395Z,9.10
2018-09-24T23:34:35.806Z,9.10
2018-09-24T23:37:10.332Z,9.00
2018-09-24T23:39:44.743Z,8.90
2018-09-24T23:42:19.308Z,8.90
2018-09-24T23:44:53.796Z,8.90
2018-09-24T23:47:28.231Z,8.90
2018-09-24T23:50:02.630Z,8.90
2018-09-24T23:52:37.136Z,8.90
2018-09-24T23:55:11.644Z,8.90
2018-09-24T23:57:46.043Z,8.90
